Nearby METAR Reports

 

KHIF - Hill Afb/Ogden, Utah, USA
Distance from station: ENE 6mi, 9km
Updated: Sun, 29-Mar-2020 7:58am MDT
Overcast
Overcast
 Wind from NE
Wind: NE 3 mph , 6 km/h
Temperature: 36°F , 2°C
Dew Point: 23°F , -5°C
Humidity: 60%
Barometer: 30.05 inHg , 1017.6 hPa
Clouds: Overcast
Visibility: 10 miles , 16 km
Cloud details: Partly cloudy 5000 ft
Overcast 7000 ft
2020/03/29 13:58 KHIF 291358Z AUTO 05003KT 10SM SCT050 OVC070 02/M05 A3005 RMK AO2 SLP172 T00161051
KOGD - Ogden, Utah, USA
Distance from station: NNE 9mi, 14km
Updated: Sun, 29-Mar-2020 7:53am MDT
Overcast
Overcast
 Wind from S
Wind: S 7 mph , 11 km/h
Temperature: 37°F , 3°C
Wind Chill: 32°F , 0°C
Dew Point: 23°F , -5°C
Humidity: 56%
Barometer: 30.06 inHg , 1017.9 hPa
Clouds: Overcast
Visibility: 10 miles , 16 km
Cloud details: Mostly cloudy 6000 ft
Mostly cloudy 7500 ft
Overcast 9000 ft
2020/03/29 13:53 KOGD 291353Z 18006KT 10SM BKN060 BKN075 OVC090 03/M05 A3006 RMK AO2 SLP173 T00281050
 
KSLC - Salt Lake City, Utah, USA
Distance from station: SSE 21mi, 34km
Updated: Sun, 29-Mar-2020 7:54am MDT
Mostly cloudy
Mostly cloudy
 Wind from SE
Wind: SE 6 mph , 9 km/h
Temperature: 39°F , 4°C
Wind Chill: 35°F , 2°C
Dew Point: 30°F , -1°C
Humidity: 70%
Barometer: 30.06 inHg , 1017.9 hPa
Clouds: Mostly cloudy
Visibility: 10 miles , 16 km
Cloud details: Few Clouds 6000 ft
Partly cloudy 7500 ft
Mostly cloudy 9000 ft
2020/03/29 13:54 KSLC 291354Z 13005KT 10SM FEW060 SCT075 BKN090 04/M01 A3006 RMK AO2 SLP173 VIRGA T00391011
KLGU - Logan, Utah, USA
Distance from station: NNE 50mi, 80km
Updated: Sun, 29-Mar-2020 7:51am MDT
Overcast
Overcast
 Wind from W
Wind: W 8 mph , 13 km/h
Temperature: 32°F , 0°C
Wind Chill: 25°F , -4°C
Dew Point: 27°F , -3°C
Humidity: 80%
Barometer: 30.07 inHg , 1018.3 hPa
Clouds: Overcast
Visibility: 10 miles , 16 km
Cloud details: Overcast 10000 ft
2020/03/29 13:51 KLGU 291351Z AUTO 28007KT 10SM OVC100 00/M03 A3007 RMK AO2 SLP183 T00001033
 
K36U - Heber/Russ Mcdon, Utah, USA
Distance from station: SE 53mi, 85km
Updated: Wed, 11-Oct-2017 6:50pm MDT
NOT Current
Clear
Clear
 Wind from SSW
Wind: SSW 10 mph , 17 km/h, Gust: 18 mph , 30 km/h
Temperature: 63°F , 17°C
Dew Point: 16°F , -9°C
Humidity: 16%
Barometer: 29.87 inHg , 1011.5 hPa
Clouds: Clear
Visibility: 10 miles , 16 km
2017/10/12 00:50 K36U 120050Z AUTO 21009G16KT 10SM CLR 17/M09 A2987 RMK AO2
KEVW - Evanston, Wyoming, USA
Distance from station: ENE 55mi, 89km
Updated: Sun, 29-Mar-2020 7:53am MDT
Overcast
Overcast
 Wind from E
Wind: E 7 mph , 11 km/h
Temperature: 19°F , -7°C
Wind Chill: 10°F , -12°C
Dew Point: 10°F , -12°C
Humidity: 68%
Barometer: 30.05 inHg , 1017.6 hPa
Clouds: Overcast
Visibility: 10 miles , 16 km
Cloud details: Overcast 7500 ft
2020/03/29 13:53 KEVW 291353Z AUTO 08006KT 10SM OVC075 M07/M12 A3005 RMK AO2 SLP199 T10671117
 
KPVU - Provo Muni, Utah, USA
Distance from station: SSE 62mi, 100km
Updated: Sun, 29-Mar-2020 7:56am MDT
Overcast
Overcast
 Wind from NE
Wind: NE 7 mph , 11 km/h
Temperature: 37°F , 3°C
Wind Chill: 32°F , 0°C
Dew Point: 28°F , -2°C
Humidity: 70%
Barometer: 30.08 inHg , 1018.6 hPa
Clouds: Overcast
Visibility: 10 miles , 16 km
Cloud details: Few Clouds 3800 ft
Partly cloudy 5000 ft
Overcast 7000 ft
2020/03/29 13:56 KPVU 291356Z 04006KT 10SM FEW038 SCT050 OVC070 03/M02 A3008 RMK AO2 SLP189 T00331022
KDPG - Dugway Prvg Grou, Utah, USA
Distance from station: SW 75mi, 121km
Updated: Fri, 27-Mar-2020 11:50am MDT
NOT Current
Partly cloudy
Partly cloudy
 Wind from NW
Wind: NW 14 mph , 22 km/h, Gust: 21 mph , 33 km/h
Temperature: 39°F , 4°C
Wind Chill: 31°F , -1°C
Dew Point: 18°F , -8°C
Humidity: 42%
Barometer: 29.92 inHg , 1013.2 hPa
Clouds: Partly cloudy
Visibility: 50 miles , 80 km
Cloud details: Partly cloudy 4000 ft
Partly cloudy 6000 ft
Partly cloudy 15000 ft
2020/03/27 17:50 KDPG 271750Z 31012G18KT 50SM SCT040 SCT060 SCT150 04/M08 A2992 RMK SH DSNT NE VIRGA DSNT W SLP131 T00441081
 
KENV - Wendover (aut), Utah, USA
Distance from station: WSW 105mi, 169km
Updated: Sun, 29-Mar-2020 7:56am MDT
Overcast
Overcast
 Wind from NNE
Wind: NNE 5 mph , 7 km/h
Temperature: 41°F , 5°C
Wind Chill: 38°F , 3°C
Dew Point: 28°F , -2°C
Humidity: 61%
Barometer: 30.04 inHg , 1017.3 hPa
Clouds: Overcast
Visibility: 10 miles , 16 km
Cloud details: Overcast 4800 ft
2020/03/29 13:56 KENV 291356Z AUTO 03004KT 10SM OVC048 05/M02 A3004 RMK AO2 SLP174 T00501017
KPUC - Price, Utah, USA
Distance from station: SE 123mi, 197km
Updated: Sun, 29-Mar-2020 7:53am MDT
Overcast
Overcast
 Wind from calm
Wind: Calm
Temperature: 28°F , -2°C
Dew Point: 21°F , -6°C
Humidity: 74%
Barometer: 30.07 inHg , 1018.3 hPa
Clouds: Overcast
Visibility: 10 miles , 16 km
Cloud details: Few Clouds 6000 ft
Mostly cloudy 7500 ft
Overcast 9000 ft
2020/03/29 13:53 KPUC 291353Z AUTO 00000KT 10SM FEW060 BKN075 OVC090 M02/M06 A3007 RMK AO2 SLP210 T10171061
 
KPIH - Pocatello, Idaho, USA
Distance from station: NNW 130mi, 208km
Updated: Sun, 29-Mar-2020 7:53am MDT
Mostly cloudy
Mostly cloudy
 Wind from E
Wind: E 3 mph , 6 km/h
Temperature: 37°F , 3°C
Dew Point: 27°F , -3°C
Humidity: 65%
Barometer: 30.02 inHg , 1016.6 hPa
Clouds: Mostly cloudy
Visibility: 10 miles , 16 km
Cloud details: Mostly cloudy 10000 ft
2020/03/29 13:53 KPIH 291353Z 08003KT 10SM BKN100 03/M03 A3002 RMK AO2 SLP170 T00281033 $
KBYI - Burley, Idaho, USA
Distance from station: NW 134mi, 216km
Updated: Sun, 29-Mar-2020 7:53am MDT
Overcast
Overcast
 Wind from SSE
Wind: SSE 6 mph , 9 km/h
Temperature: 37°F , 3°C
Wind Chill: 32°F , 0°C
Dew Point: 27°F , -3°C
Humidity: 65%
Barometer: 29.99 inHg , 1015.6 hPa
Clouds: Overcast
Visibility: 10 miles , 16 km
Cloud details: Mostly cloudy 7000 ft
Overcast 9500 ft
2020/03/29 13:53 KBYI 291353Z AUTO 16005KT 10SM BKN070 OVC095 03/M03 A2999 RMK AO2 SLP154 T00331028 $
 
KVEL - Vernal, Utah, USA
Distance from station: ESE 140mi, 226km
Updated: Sun, 29-Mar-2020 7:53am MDT
Clear
Clear
 Wind from calm
Wind: Calm
Temperature: 30°F , -1°C
Dew Point: 23°F , -5°C
Humidity: 75%
Barometer: 30.11 inHg , 1019.6 hPa
Clouds: Clear
Visibility: 10 miles , 16 km
2020/03/29 13:53 KVEL 291353Z AUTO 00000KT 10SM CLR M01/M05 A3011 RMK AO2 SLP207 T10061050
KBPI - Big Piney, Wyoming, USA
Distance from station: NE 145mi, 234km
Updated: Sun, 29-Mar-2020 7:53am MDT
Clear
Clear
 Wind from ENE
Wind: ENE 5 mph , 7 km/h
Temperature: 18°F , -8°C
Wind Chill: 11°F , -12°C
Dew Point: 14°F , -10°C
Humidity: 86%
Barometer: 30.07 inHg , 1018.3 hPa
Clouds: Clear
Visibility: 10 miles , 16 km
2020/03/29 13:53 KBPI 291353Z AUTO 07004KT 10SM CLR M08/M10 A3007 RMK AO2 SLP209 T10831100